createdAt,value
2022-12-11T00:00:53.856Z,42.10
2022-12-11T00:03:20.538Z,46.67
2022-12-11T00:05:47.232Z,40.97
2022-12-11T00:08:17.886Z,42.95
2022-12-11T00:10:49.564Z,42.03
2022-12-11T00:13:18.708Z,37.10
2022-12-11T00:15:47.905Z,39.78
2022-12-11T00:18:17.768Z,38.05
2022-12-11T00:20:46.740Z,39.20
2022-12-11T00:23:13.385Z,43.30
2022-12-11T00:25:44.662Z,45.55
2022-12-11T00:28:12.951Z,44.00
2022-12-11T00:30:41.316Z,42.60
2022-12-11T00:33:08.737Z,46.20
2022-12-11T00:35:39.635Z,44.78
2022-12-11T00:38:06.267Z,39.78
2022-12-11T00:40:36.841Z,43.13
2022-12-11T00:43:04.037Z,42.53
2022-12-11T00:45:30.866Z,45.15
2022-12-11T00:47:57.601Z,41.35
2022-12-11T00:50:24.195Z,51.38
2022-12-11T00:52:52.965Z,41.65
2022-12-11T00:55:19.607Z,41.72
2022-12-11T00:57:48.806Z,40.00
2022-12-11T01:00:15.636Z,44.33
2022-12-11T01:02:42.579Z,43.40
2022-12-11T01:05:10.800Z,42.58
2022-12-11T01:07:39.994Z,40.28
2022-12-11T01:10:25.106Z,38.75
2022-12-11T01:13:06.592Z,45.00
2022-12-11T01:15:41.372Z,42.67
2022-12-11T01:18:09.540Z,35.92
2022-12-11T01:20:39.201Z,44.25
2022-12-11T01:23:08.414Z,36.80
2022-12-11T01:25:38.560Z,39.35
2022-12-11T01:28:06.319Z,39.38
2022-12-11T01:30:33.412Z,36.97
2022-12-11T01:33:02.038Z,43.53
2022-12-11T01:35:31.186Z,38.17
2022-12-11T01:37:57.794Z,37.55
2022-12-11T01:40:24.679Z,34.95
2022-12-11T01:42:51.328Z,33.30
2022-12-11T01:45:27.567Z,35.85
2022-12-11T01:48:19.576Z,37.53
2022-12-11T01:51:02.417Z,30.05
2022-12-11T01:56:18.248Z,37.28
2022-12-11T01:58:49.666Z,37.22
2022-12-11T02:01:27.405Z,34.50
2022-12-11T02:03:57.947Z,36.45
2022-12-11T02:06:33.529Z,37.92
2022-12-11T02:09:00.965Z,35.85
2022-12-11T02:11:45.880Z,38.40
2022-12-11T02:14:48.532Z,33.47
2022-12-11T02:20:16.825Z,27.55
2022-12-11T02:26:14.446Z,34.65
2022-12-11T02:28:54.643Z,29.67
2022-12-11T02:31:36.421Z,29.30
2022-12-11T02:34:17.845Z,31.73
2022-12-11T02:36:50.672Z,36.10
2022-12-11T02:39:22.383Z,31.15
2022-12-11T02:41:51.151Z,33.55
2022-12-11T02:44:24.633Z,32.53
2022-12-11T02:46:52.304Z,32.28
2022-12-11T02:49:21.052Z,32.85
2022-12-11T02:51:52.219Z,32.95
2022-12-11T02:54:26.792Z,30.45
2022-12-11T02:57:09.128Z,34.13
2022-12-11T03:02:05.262Z,35.53
2022-12-11T03:04:36.104Z,34.03
2022-12-11T03:07:25.272Z,39.50
2022-12-11T03:09:54.555Z,38.45
2022-12-11T03:12:28.081Z,35.60
2022-12-11T03:14:55.248Z,44.25
2022-12-11T03:17:25.252Z,37.70
2022-12-11T03:20:23.188Z,36.70
2022-12-11T03:23:00.247Z,38.85
2022-12-11T03:25:43.296Z,36.17
2022-12-11T03:28:12.957Z,35.30
2022-12-11T03:30:41.798Z,36.35
2022-12-11T03:33:13.650Z,41.25
2022-12-11T03:35:43.793Z,40.92
2022-12-11T03:38:21.041Z,39.13
2022-12-11T03:40:51.598Z,37.80
2022-12-11T03:43:21.196Z,37.60
2022-12-11T03:45:51.125Z,35.90
2022-12-11T03:48:21.738Z,38.38
2022-12-11T03:50:49.644Z,38.25
2022-12-11T03:53:19.707Z,33.08
2022-12-11T03:55:48.291Z,40.47
2022-12-11T03:58:17.091Z,36.20
2022-12-11T04:00:43.682Z,37.13
2022-12-11T04:03:14.109Z,37.47
2022-12-11T04:05:50.117Z,34.03
2022-12-11T04:08:18.656Z,39.83
2022-12-11T04:10:45.330Z,40.97
2022-12-11T04:13:13.279Z,35.20
2022-12-11T04:15:40.630Z,35.00
2022-12-11T04:18:26.626Z,36.10
2022-12-11T04:21:13.022Z,37.33
2022-12-11T04:23:59.562Z,33.40
2022-12-11T04:26:26.328Z,38.88
2022-12-11T04:28:53.034Z,33.75
2022-12-11T04:31:22.121Z,35.15
2022-12-11T04:33:49.117Z,30.50
2022-12-11T04:36:19.390Z,31.13
2022-12-11T04:38:46.063Z,31.30
2022-12-11T04:41:14.908Z,29.42
2022-12-11T04:43:45.123Z,30.65
2022-12-11T04:46:17.538Z,31.30
2022-12-11T04:48:51.223Z,27.38
2022-12-11T04:51:21.408Z,30.17
2022-12-11T04:53:48.276Z,30.05
2022-12-11T04:56:18.075Z,29.42
2022-12-11T04:58:46.018Z,33.53
2022-12-11T05:01:23.117Z,30.90
2022-12-11T05:03:50.277Z,30.63
2022-12-11T05:06:18.117Z,29.25
2022-12-11T05:08:47.272Z,27.10
2022-12-11T05:11:15.728Z,26.83
2022-12-11T05:13:43.158Z,29.13
2022-12-11T05:16:14.052Z,26.90
2022-12-11T05:18:41.034Z,24.35
2022-12-11T05:21:10.602Z,27.48
2022-12-11T05:23:39.991Z,25.33
2022-12-11T05:26:17.509Z,30.35
2022-12-11T05:28:44.991Z,28.17
2022-12-11T05:31:18.698Z,25.90
2022-12-11T05:33:46.516Z,23.65
2022-12-11T05:36:20.042Z,25.00
2022-12-11T05:38:49.170Z,25.98
2022-12-11T05:41:18.070Z,25.35
2022-12-11T05:43:47.373Z,26.92
2022-12-11T05:46:20.676Z,22.65
2022-12-11T05:48:55.271Z,22.83
2022-12-11T05:51:21.955Z,22.58
2022-12-11T05:53:54.984Z,19.92
2022-12-11T05:56:27.557Z,27.35
2022-12-11T05:58:55.410Z,25.55
2022-12-11T06:01:39.531Z,23.83
2022-12-11T06:04:08.138Z,25.38
2022-12-11T06:06:35.052Z,22.30
2022-12-11T06:09:04.711Z,26.10
2022-12-11T06:11:33.244Z,21.67
2022-12-11T06:14:04.154Z,24.70
2022-12-11T06:16:34.207Z,24.63
2022-12-11T06:19:03.636Z,20.27
2022-12-11T06:21:34.697Z,22.38
2022-12-11T06:24:06.709Z,17.42
2022-12-11T06:26:35.773Z,19.95
2022-12-11T06:29:05.220Z,20.58
2022-12-11T06:31:36.342Z,22.77
2022-12-11T06:34:03.261Z,22.27
2022-12-11T06:36:32.428Z,26.98
2022-12-11T06:38:59.040Z,19.65
2022-12-11T06:41:26.967Z,20.50
2022-12-11T06:43:53.599Z,20.10
2022-12-11T06:46:20.542Z,19.52
2022-12-11T06:48:51.662Z,18.73
2022-12-11T06:51:27.377Z,19.58
2022-12-11T06:53:59.238Z,17.50
2022-12-11T06:56:28.831Z,16.98
2022-12-11T06:58:56.998Z,16.52
2022-12-11T07:01:27.571Z,16.98
2022-12-11T07:03:58.064Z,18.15
2022-12-11T07:06:29.008Z,16.52
2022-12-11T07:09:00.689Z,19.63
2022-12-11T07:11:29.670Z,18.98
2022-12-11T07:14:01.284Z,17.75
2022-12-11T07:16:30.434Z,18.75
2022-12-11T07:18:59.963Z,21.30
2022-12-11T07:21:26.611Z,20.10
2022-12-11T07:23:56.507Z,19.58
2022-12-11T07:26:23.143Z,19.92
2022-12-11T07:28:52.651Z,19.15
2022-12-11T07:31:22.189Z,18.55
2022-12-11T07:33:56.303Z,18.10
2022-12-11T07:36:23.430Z,18.50
2022-12-11T07:38:52.806Z,18.83
2022-12-11T07:41:29.535Z,19.65
2022-12-11T07:43:56.280Z,16.98
2022-12-11T07:46:28.055Z,15.18
2022-12-11T07:48:54.864Z,15.88
2022-12-11T07:51:26.446Z,18.52
2022-12-11T07:53:54.927Z,15.00
2022-12-11T07:56:22.122Z,16.48
2022-12-11T07:58:48.838Z,19.15
2022-12-11T08:01:18.950Z,17.05
2022-12-11T08:03:45.984Z,18.02
2022-12-11T08:06:12.851Z,17.17
2022-12-11T08:08:41.323Z,19.00
2022-12-11T08:11:10.387Z,19.08
2022-12-11T08:13:37.456Z,15.90
2022-12-11T08:16:06.697Z,16.75
2022-12-11T08:18:34.840Z,20.63
2022-12-11T08:21:09.499Z,18.90
2022-12-11T08:23:36.151Z,17.10
2022-12-11T08:26:04.462Z,19.60
2022-12-11T08:28:31.531Z,19.02
2022-12-11T08:30:58.432Z,17.90
2022-12-11T08:33:25.602Z,17.60
2022-12-11T08:35:52.284Z,17.90
2022-12-11T08:38:25.016Z,19.48
2022-12-11T08:40:52.122Z,16.15
2022-12-11T08:43:18.780Z,16.40
2022-12-11T08:45:46.710Z,17.30
2022-12-11T08:48:13.439Z,16.25
2022-12-11T08:50:40.065Z,17.25
2022-12-11T08:53:06.747Z,17.67
2022-12-11T08:55:33.676Z,14.73
2022-12-11T08:58:00.366Z,17.08
2022-12-11T09:00:27.735Z,16.63
2022-12-11T09:02:54.353Z,18.83
2022-12-11T09:05:21.073Z,15.45
2022-12-11T09:07:47.803Z,16.30
2022-12-11T09:10:14.456Z,16.30
2022-12-11T09:12:41.108Z,17.85
2022-12-11T09:15:08.064Z,13.07
2022-12-11T09:17:35.348Z,14.75
2022-12-11T09:20:02.134Z,13.90
2022-12-11T09:22:28.849Z,14.15
2022-12-11T09:24:55.459Z,14.27
2022-12-11T09:27:22.080Z,15.05
2022-12-11T09:29:49.397Z,16.50
2022-12-11T09:32:16.284Z,16.70
2022-12-11T09:34:42.939Z,16.42
2022-12-11T09:37:09.528Z,15.90
2022-12-11T09:39:36.175Z,18.70
2022-12-11T09:42:18.267Z,15.65
2022-12-11T09:44:54.764Z,21.20
2022-12-11T09:47:38.581Z,12.77
2022-12-11T09:50:13.929Z,12.23
2022-12-11T09:52:48.382Z,12.73
2022-12-11T09:55:19.407Z,10.60
2022-12-11T09:58:05.188Z,11.77
2022-12-11T10:00:41.327Z,11.20
2022-12-11T10:03:55.158Z,9.52
2022-12-11T10:06:32.282Z,13.57
2022-12-11T10:09:25.892Z,11.57
2022-12-11T10:12:19.015Z,11.68
2022-12-11T10:15:14.931Z,9.73
2022-12-11T10:17:44.527Z,11.15
2022-12-11T10:20:24.695Z,10.63
2022-12-11T10:22:53.472Z,8.90
2022-12-11T10:25:29.130Z,15.73
2022-12-11T10:27:56.155Z,13.80
2022-12-11T10:30:25.971Z,13.77
2022-12-11T10:33:08.752Z,13.95
2022-12-11T10:35:53.658Z,14.27
2022-12-11T10:38:20.260Z,13.02
2022-12-11T10:40:52.288Z,17.60
2022-12-11T10:43:19.177Z,13.98
2022-12-11T10:45:54.579Z,11.18
2022-12-11T10:48:23.596Z,13.75
2022-12-11T10:51:03.772Z,11.95
2022-12-11T10:53:32.169Z,14.23
2022-12-11T10:55:59.923Z,12.30
2022-12-11T10:58:33.759Z,13.27
2022-12-11T11:01:08.296Z,15.18
2022-12-11T11:03:38.915Z,13.05
2022-12-11T11:06:20.590Z,17.13
2022-12-11T11:08:58.305Z,16.10
2022-12-11T11:11:36.570Z,18.15
2022-12-11T11:14:12.284Z,21.80
2022-12-11T11:16:41.192Z,15.60
2022-12-11T11:19:15.675Z,16.38
2022-12-11T11:21:49.646Z,15.95
2022-12-11T11:24:37.419Z,16.90
2022-12-11T11:27:30.182Z,17.33
2022-12-11T11:30:01.157Z,14.82
2022-12-11T11:32:38.624Z,17.00
2022-12-11T11:35:26.639Z,17.70
2022-12-11T11:38:18.535Z,20.48
2022-12-11T11:40:48.409Z,17.95
2022-12-11T11:43:38.102Z,18.45
2022-12-11T11:46:21.698Z,16.15
2022-12-11T11:48:48.350Z,18.10
2022-12-11T11:51:21.501Z,17.27
2022-12-11T11:53:51.133Z,15.75
2022-12-11T11:56:22.567Z,14.68
2022-12-11T11:59:07.768Z,14.38
2022-12-11T12:01:34.636Z,15.95
2022-12-11T12:04:03.827Z,14.15
2022-12-11T12:06:50.510Z,14.82
2022-12-11T12:09:51.985Z,14.73
2022-12-11T12:12:34.401Z,15.85
2022-12-11T12:15:10.282Z,12.40
2022-12-11T12:17:54.967Z,15.02
2022-12-11T12:20:34.259Z,12.60
2022-12-11T12:23:26.287Z,12.82
2022-12-11T12:26:00.232Z,12.50
2022-12-11T12:28:44.966Z,12.65
2022-12-11T12:31:28.717Z,12.05
2022-12-11T12:34:28.677Z,12.02
2022-12-11T12:37:01.412Z,12.93
2022-12-11T12:39:39.748Z,14.85
2022-12-11T12:42:11.212Z,13.75
2022-12-11T12:45:11.982Z,12.40
2022-12-11T12:47:41.049Z,15.50
2022-12-11T12:50:14.810Z,16.20
2022-12-11T12:52:42.305Z,13.57
2022-12-11T12:55:24.071Z,12.30
2022-12-11T12:57:55.620Z,12.93
2022-12-11T13:00:40.395Z,9.43
2022-12-11T13:03:30.988Z,12.25
2022-12-11T13:06:10.633Z,12.00
2022-12-11T13:08:45.952Z,12.23
2022-12-11T13:11:15.080Z,10.52
2022-12-11T13:13:51.546Z,13.00
2022-12-11T13:16:25.705Z,11.23
2022-12-11T13:18:53.375Z,10.70
2022-12-11T13:21:39.484Z,13.02
2022-12-11T13:24:20.974Z,16.65
2022-12-11T13:26:49.270Z,14.97
2022-12-11T13:29:34.874Z,13.00
2022-12-11T13:32:23.329Z,11.05
2022-12-11T13:34:57.997Z,15.57
2022-12-11T13:37:36.723Z,14.10
2022-12-11T13:40:08.381Z,11.80
2022-12-11T13:42:47.456Z,13.20
2022-12-11T13:45:30.118Z,10.75
2022-12-11T13:47:58.197Z,13.82
2022-12-11T13:50:31.016Z,11.95
2022-12-11T13:52:59.856Z,17.88
2022-12-11T13:55:30.981Z,16.15
2022-12-11T13:57:58.215Z,11.68
2022-12-11T14:00:30.332Z,14.52
2022-12-11T14:03:00.281Z,13.38
2022-12-11T14:05:27.319Z,15.68
2022-12-11T14:07:58.603Z,17.23
2022-12-11T14:10:31.003Z,24.10
2022-12-11T14:13:15.028Z,19.55
2022-12-11T14:15:44.969Z,32.25
2022-12-11T14:18:23.784Z,23.17
2022-12-11T14:20:58.755Z,17.92
2022-12-11T14:23:33.968Z,12.07
2022-12-11T14:26:01.686Z,13.70
2022-12-11T14:28:36.824Z,12.85
2022-12-11T14:31:05.816Z,15.52
2022-12-11T14:33:46.625Z,14.27
2022-12-11T14:36:15.472Z,12.85
2022-12-11T14:38:49.180Z,13.07
2022-12-11T14:41:18.768Z,14.38
2022-12-11T14:44:06.504Z,15.00
2022-12-11T14:46:39.826Z,13.70
2022-12-11T14:49:22.892Z,15.32
2022-12-11T14:51:51.657Z,13.23
2022-12-11T14:54:32.331Z,14.60
2022-12-11T14:57:00.811Z,17.77
2022-12-11T14:59:32.284Z,14.63
2022-12-11T15:02:01.707Z,15.18
2022-12-11T15:04:32.112Z,15.68
2022-12-11T15:06:59.742Z,15.20
2022-12-11T15:09:36.101Z,14.43
2022-12-11T15:12:16.396Z,17.58
2022-12-11T15:14:50.288Z,16.08
2022-12-11T15:17:18.446Z,14.95
2022-12-11T15:20:01.222Z,18.23
2022-12-11T15:22:31.935Z,18.17
2022-12-11T15:24:59.861Z,16.05
2022-12-11T15:27:38.176Z,14.77
2022-12-11T15:30:34.817Z,13.57
2022-12-11T15:33:22.119Z,13.35
2022-12-11T15:36:23.936Z,20.02
2022-12-11T15:38:50.640Z,14.23
2022-12-11T15:41:21.350Z,16.42
2022-12-11T15:43:48.047Z,16.20
2022-12-11T15:46:16.877Z,15.52
2022-12-11T15:48:43.701Z,16.83
2022-12-11T15:51:16.074Z,19.35
2022-12-11T15:53:43.504Z,14.52
2022-12-11T15:56:16.122Z,16.60
2022-12-11T15:58:48.614Z,17.92
2022-12-11T16:01:15.268Z,20.45
2022-12-11T16:03:41.882Z,15.75
2022-12-11T16:06:13.037Z,14.30
2022-12-11T16:08:39.689Z,14.60
2022-12-11T16:11:06.271Z,16.30
2022-12-11T16:13:32.922Z,13.88
2022-12-11T16:15:59.643Z,17.02
2022-12-11T16:18:26.776Z,15.15
2022-12-11T16:20:53.417Z,16.10
2022-12-11T16:23:20.601Z,14.43
2022-12-11T16:25:47.705Z,14.95
2022-12-11T16:28:17.111Z,17.90
2022-12-11T16:30:44.807Z,19.35
2022-12-11T16:33:14.535Z,35.08
2022-12-11T16:35:42.785Z,23.40
2022-12-11T16:38:10.349Z,21.15
2022-12-11T16:40:37.984Z,19.63
2022-12-11T16:43:05.291Z,15.55
2022-12-11T16:45:32.484Z,18.73
2022-12-11T16:48:01.913Z,15.73
2022-12-11T16:50:28.565Z,19.90
2022-12-11T16:52:56.400Z,16.88
2022-12-11T16:55:23.085Z,17.25
2022-12-11T16:57:49.677Z,18.42
2022-12-11T17:00:16.768Z,17.63
2022-12-11T17:02:48.614Z,15.63
2022-12-11T17:05:15.517Z,20.73
2022-12-11T17:07:42.229Z,18.08
2022-12-11T17:10:09.079Z,17.25
2022-12-11T17:12:35.920Z,17.88
2022-12-11T17:15:02.631Z,16.05
2022-12-11T17:17:30.447Z,21.27
2022-12-11T17:19:59.197Z,21.10
2022-12-11T17:22:25.823Z,23.40
2022-12-11T17:24:52.619Z,21.00
2022-12-11T17:27:19.601Z,17.98
2022-12-11T17:29:49.316Z,19.33
2022-12-11T17:32:17.443Z,18.48
2022-12-11T17:34:44.865Z,18.52
2022-12-11T17:37:11.624Z,16.90
2022-12-11T17:39:38.243Z,16.30
2022-12-11T17:42:05.529Z,16.70
2022-12-11T17:44:32.150Z,16.35
2022-12-11T17:46:59.028Z,17.23
2022-12-11T17:49:28.254Z,15.43
2022-12-11T17:51:55.301Z,18.45
2022-12-11T17:54:23.843Z,22.17
2022-12-11T17:56:50.767Z,18.73
2022-12-11T17:59:17.533Z,19.42
2022-12-11T18:01:45.360Z,18.77
2022-12-11T18:04:12.427Z,21.60
2022-12-11T18:06:39.257Z,20.75
2022-12-11T18:09:06.417Z,17.83
2022-12-11T18:11:33.618Z,18.88
2022-12-11T18:14:00.571Z,18.00
2022-12-11T18:16:38.578Z,17.35
2022-12-11T18:19:12.484Z,22.52
2022-12-11T18:21:42.662Z,24.00
2022-12-11T18:24:12.026Z,23.83
2022-12-11T18:26:38.729Z,21.52
2022-12-11T18:29:06.622Z,22.95
2022-12-11T18:31:37.485Z,24.25
2022-12-11T18:34:16.118Z,22.70
2022-12-11T18:36:52.624Z,21.65
2022-12-11T18:39:19.296Z,22.15
2022-12-11T18:41:58.297Z,21.42
2022-12-11T18:44:30.344Z,20.98
2022-12-11T18:46:57.042Z,22.08
2022-12-11T18:49:28.007Z,22.83
2022-12-11T18:51:54.762Z,23.13
2022-12-11T18:54:21.756Z,21.60
2022-12-11T18:56:48.422Z,22.92
2022-12-11T18:59:17.637Z,22.58
2022-12-11T19:01:46.783Z,24.17
2022-12-11T19:04:15.812Z,19.85
2022-12-11T19:06:44.645Z,20.80
2022-12-11T19:09:12.844Z,21.67
2022-12-11T19:11:50.319Z,19.63
2022-12-11T19:14:21.460Z,20.77
2022-12-11T19:16:53.938Z,21.10
2022-12-11T19:19:21.603Z,23.00
2022-12-11T19:21:50.827Z,23.83
2022-12-11T19:24:23.032Z,19.60
2022-12-11T19:26:49.822Z,22.80
2022-12-11T19:29:29.192Z,23.27
2022-12-11T19:32:00.868Z,21.92
2022-12-11T19:34:27.738Z,22.92
2022-12-11T19:37:00.133Z,20.92
2022-12-11T19:39:30.487Z,21.55
2022-12-11T19:41:57.188Z,21.88
2022-12-11T19:44:26.575Z,19.65
2022-12-11T19:46:53.366Z,19.75
2022-12-11T19:49:22.763Z,18.33
2022-12-11T19:51:51.344Z,19.88
2022-12-11T19:54:19.524Z,21.70
2022-12-11T19:56:48.698Z,19.20
2022-12-11T19:59:17.608Z,19.63
2022-12-11T20:01:53.728Z,23.55
2022-12-11T20:04:26.587Z,22.08
2022-12-11T20:06:55.592Z,21.20
2022-12-11T20:09:27.166Z,23.30
2022-12-11T20:11:53.896Z,20.98
2022-12-11T20:14:25.857Z,21.75
2022-12-11T20:17:16.159Z,20.80
2022-12-11T20:19:43.876Z,23.38
2022-12-11T20:22:10.753Z,22.70
2022-12-11T20:24:37.959Z,23.30
2022-12-11T20:27:11.942Z,20.70
2022-12-11T20:29:43.565Z,24.08
2022-12-11T20:32:18.615Z,22.08
2022-12-11T20:34:45.311Z,20.35
2022-12-11T20:37:12.491Z,22.95
2022-12-11T20:39:39.247Z,23.90
2022-12-11T20:42:11.815Z,18.15
2022-12-11T20:44:38.871Z,19.60
2022-12-11T20:47:07.455Z,21.45
2022-12-11T20:49:34.227Z,20.67
2022-12-11T20:52:00.830Z,22.58
2022-12-11T20:54:27.665Z,23.63
2022-12-11T20:56:55.280Z,23.77
2022-12-11T20:59:22.132Z,19.27
2022-12-11T21:01:52.599Z,20.75
2022-12-11T21:04:19.366Z,22.70
2022-12-11T21:06:57.064Z,23.08
2022-12-11T21:09:27.718Z,24.17
2022-12-11T21:11:59.928Z,25.73
2022-12-11T21:17:00.950Z,24.98
2022-12-11T21:19:31.146Z,23.00
2022-12-11T21:21:59.403Z,25.05
2022-12-11T21:24:28.915Z,27.33
2022-12-11T21:26:57.722Z,24.23
2022-12-11T21:29:25.917Z,25.10
2022-12-11T21:31:55.749Z,27.23
2022-12-11T21:34:25.541Z,26.55
2022-12-11T21:36:56.402Z,24.00
2022-12-11T21:39:34.767Z,24.08
2022-12-11T21:42:07.872Z,23.88
2022-12-11T21:47:31.551Z,23.85
2022-12-11T21:49:58.360Z,25.52
2022-12-11T21:52:24.972Z,22.63
2022-12-11T21:54:54.141Z,24.88
2022-12-11T21:57:26.125Z,27.10
2022-12-11T21:59:53.382Z,26.60
2022-12-11T22:02:20.003Z,28.45
2022-12-11T22:04:49.044Z,28.80
2022-12-11T22:07:18.801Z,28.88
2022-12-11T22:09:45.412Z,30.45
2022-12-11T22:12:22.854Z,24.23
2022-12-11T22:14:52.188Z,30.83
2022-12-11T22:17:19.006Z,29.35
2022-12-11T22:19:46.377Z,25.55
2022-12-11T22:22:14.377Z,28.95
2022-12-11T22:24:42.581Z,29.67
2022-12-11T22:27:20.412Z,26.38
2022-12-11T22:29:54.772Z,26.38
2022-12-11T22:32:21.447Z,27.10
2022-12-11T22:34:53.740Z,26.63
2022-12-11T22:37:22.206Z,29.35
2022-12-11T22:39:52.597Z,29.85
2022-12-11T22:42:19.381Z,26.35
2022-12-11T22:44:48.531Z,27.52
2022-12-11T22:47:15.724Z,29.73
2022-12-11T22:49:42.364Z,27.75
2022-12-11T22:52:09.834Z,29.92
2022-12-11T22:54:43.976Z,26.98
2022-12-11T22:57:11.891Z,27.10
2022-12-11T22:59:42.081Z,27.42
2022-12-11T23:02:08.946Z,30.70
2022-12-11T23:04:35.603Z,27.70
2022-12-11T23:07:05.015Z,25.40
2022-12-11T23:09:31.934Z,28.77
2022-12-11T23:11:58.796Z,27.73
2022-12-11T23:14:27.007Z,26.67
2022-12-11T23:16:53.789Z,25.92
2022-12-11T23:19:25.728Z,27.15
2022-12-11T23:21:52.785Z,29.30
2022-12-11T23:24:19.593Z,27.75
2022-12-11T23:26:48.706Z,28.35
2022-12-11T23:29:17.788Z,28.27
2022-12-11T23:31:46.710Z,28.90
2022-12-11T23:34:13.356Z,28.08
2022-12-11T23:36:42.139Z,26.50
2022-12-11T23:39:08.803Z,28.88
2022-12-11T23:41:39.065Z,30.65
2022-12-11T23:44:05.679Z,26.77
2022-12-11T23:46:32.926Z,26.73
2022-12-11T23:49:01.686Z,27.23
2022-12-11T23:51:33.214Z,25.88
2022-12-11T23:54:02.310Z,29.13
2022-12-11T23:56:29.938Z,28.35
2022-12-11T23:58:59.075Z,28.65
